createdAt,value
2022-10-30T00:05:55.583Z,9.27
2022-10-30T00:12:43.631Z,9.00
2022-10-30T00:19:29.294Z,9.40
2022-10-30T00:26:14.692Z,10.60
2022-10-30T00:33:02.723Z,9.50
2022-10-30T00:39:48.109Z,8.45
2022-10-30T00:46:40.032Z,10.02
2022-10-30T00:53:28.577Z,9.20
2022-10-30T01:00:16.584Z,8.32
2022-10-30T01:07:03.596Z,9.57
2022-10-30T01:13:54.329Z,8.77
2022-10-30T01:21:15.927Z,9.00
2022-10-30T01:28:15.861Z,8.85
2022-10-30T01:35:11.188Z,8.75
2022-10-30T01:41:59.030Z,8.65
2022-10-30T01:49:26.152Z,9.13
2022-10-30T01:56:25.910Z,8.48
2022-10-30T02:03:18.212Z,8.93
2022-10-30T02:10:04.010Z,9.30
2022-10-30T02:16:57.156Z,8.98
2022-10-30T02:23:47.279Z,9.35
2022-10-30T02:30:33.111Z,9.20
2022-10-30T02:37:20.359Z,8.95
2022-10-30T02:44:09.282Z,9.17
2022-10-30T02:50:54.707Z,9.07
2022-10-30T02:57:40.706Z,9.43
2022-10-30T03:04:28.795Z,8.88
2022-10-30T03:11:17.314Z,9.02
2022-10-30T03:18:02.668Z,8.88
2022-10-30T03:24:50.645Z,8.97
2022-10-30T03:31:37.237Z,9.02
2022-10-30T03:38:38.484Z,8.88
2022-10-30T04:06:09.450Z,9.82
2022-10-30T04:12:56.135Z,8.75
2022-10-30T04:19:42.191Z,9.45
2022-10-30T04:26:31.997Z,10.25
2022-10-30T04:33:17.996Z,9.52
2022-10-30T04:40:03.402Z,9.50
2022-10-30T04:46:59.509Z,9.27
2022-10-30T04:53:45.065Z,9.77
2022-10-30T05:00:34.383Z,9.98
2022-10-30T05:07:31.742Z,8.82
2022-10-30T05:14:17.277Z,9.45
2022-10-30T05:21:05.332Z,9.00
2022-10-30T05:27:53.417Z,9.40
2022-10-30T05:34:39.024Z,9.15
2022-10-30T05:41:24.583Z,9.27
2022-10-30T05:48:12.870Z,9.20
2022-10-30T05:55:03.621Z,9.13
2022-10-30T06:02:00.340Z,9.05
2022-10-30T06:08:49.705Z,8.93
2022-10-30T06:15:53.700Z,9.18
2022-10-30T06:22:39.555Z,8.87
2022-10-30T06:29:35.764Z,8.52
2022-10-30T06:36:21.144Z,8.27
2022-10-30T06:43:06.735Z,9.07
2022-10-30T06:49:58.573Z,9.13
2022-10-30T06:56:44.403Z,9.10
2022-10-30T07:03:29.764Z,9.37
2022-10-30T07:10:17.888Z,9.45
2022-10-30T07:17:21.802Z,9.68
2022-10-30T07:24:13.487Z,9.77
2022-10-30T07:31:11.312Z,10.40
2022-10-30T07:38:17.743Z,10.35
2022-10-30T07:52:27.089Z,10.45
2022-10-30T07:59:12.600Z,10.38
2022-10-30T08:06:18.975Z,10.70
2022-10-30T08:13:13.439Z,9.48
2022-10-30T08:19:59.407Z,10.55
2022-10-30T08:26:45.185Z,11.90
2022-10-30T08:33:33.951Z,11.73
2022-10-30T08:40:39.288Z,12.15
2022-10-30T08:47:25.996Z,13.00
2022-10-30T08:54:15.451Z,12.27
2022-10-30T09:01:03.785Z,12.50
2022-10-30T09:08:11.916Z,12.88
2022-10-30T09:15:20.587Z,13.07
2022-10-30T09:22:12.749Z,12.82
2022-10-30T09:29:00.536Z,13.05
2022-10-30T09:36:08.324Z,11.65
2022-10-30T09:42:54.738Z,11.98
2022-10-30T09:49:59.219Z,11.38
2022-10-30T09:56:53.551Z,11.38
2022-10-30T10:03:58.438Z,12.55
2022-10-30T10:11:08.903Z,12.35
2022-10-30T10:17:58.913Z,12.02
2022-10-30T10:24:47.972Z,12.00
2022-10-30T10:31:46.223Z,12.27
2022-10-30T10:38:51.338Z,11.65
2022-10-30T10:45:50.018Z,12.88
2022-10-30T10:52:42.838Z,12.55
2022-10-30T10:59:39.368Z,12.15
2022-10-30T11:06:29.074Z,12.32
2022-10-30T11:13:17.255Z,11.07
2022-10-30T11:20:20.407Z,11.52
2022-10-30T11:27:28.405Z,11.57
2022-10-30T11:34:28.605Z,11.43
2022-10-30T11:41:18.040Z,11.75
2022-10-30T11:48:08.059Z,9.85
2022-10-30T11:55:01.941Z,10.10
2022-10-30T12:02:03.691Z,9.27
2022-10-30T12:09:03.959Z,7.80
2022-10-30T12:15:51.759Z,8.10
2022-10-30T12:22:41.316Z,6.90
2022-10-30T12:30:02.576Z,6.75
2022-10-30T12:36:51.020Z,6.93
2022-10-30T12:43:39.747Z,7.07
2022-10-30T12:50:30.754Z,7.10
2022-10-30T12:57:19.979Z,5.68
2022-10-30T13:04:17.726Z,6.00
2022-10-30T13:11:12.891Z,6.32
2022-10-30T13:18:02.382Z,6.17
2022-10-30T13:25:03.802Z,5.65
2022-10-30T13:32:10.820Z,6.00
2022-10-30T13:39:03.423Z,5.68
2022-10-30T13:46:14.810Z,5.60
2022-10-30T13:53:05.269Z,6.38
2022-10-30T14:00:04.392Z,5.72
2022-10-30T14:07:17.832Z,5.57
2022-10-30T14:14:14.268Z,5.68
2022-10-30T14:21:01.075Z,5.00
2022-10-30T14:27:59.588Z,6.00
2022-10-30T14:34:46.261Z,5.50
2022-10-30T14:41:52.131Z,5.35
2022-10-30T14:48:55.131Z,6.07
2022-10-30T14:55:59.055Z,5.47
2022-10-30T15:02:57.427Z,6.07
2022-10-30T15:10:04.852Z,5.18
2022-10-30T15:16:54.916Z,5.18
2022-10-30T15:23:41.077Z,5.55
2022-10-30T15:30:30.691Z,5.47
2022-10-30T15:37:16.780Z,4.90
2022-10-30T15:44:02.713Z,6.30
2022-10-30T15:51:03.088Z,6.03
2022-10-30T15:58:07.898Z,5.68
2022-10-30T16:04:53.757Z,6.13
2022-10-30T16:11:41.896Z,5.82
2022-10-30T16:18:30.635Z,6.13
2022-10-30T16:25:19.352Z,6.85
2022-10-30T16:32:10.962Z,6.57
2022-10-30T16:38:58.187Z,6.65
2022-10-30T16:45:52.703Z,8.13
2022-10-30T16:52:40.737Z,7.22
2022-10-30T16:59:35.669Z,10.57
2022-10-30T17:06:31.206Z,11.25
2022-10-30T17:13:38.616Z,11.20
2022-10-30T17:20:31.352Z,11.63
2022-10-30T17:27:47.106Z,10.35
2022-10-30T17:34:41.012Z,10.30
2022-10-30T17:41:26.686Z,10.80
2022-10-30T17:48:18.383Z,10.57
2022-10-30T17:55:24.998Z,11.38
2022-10-30T18:02:16.953Z,17.85
2022-10-30T18:09:02.441Z,12.23
2022-10-30T18:15:56.199Z,11.20
2022-10-30T18:22:41.590Z,10.45
2022-10-30T18:29:26.944Z,9.47
2022-10-30T18:36:18.904Z,9.80
2022-10-30T18:43:05.199Z,9.50
2022-10-30T18:56:38.405Z,10.65
2022-10-30T19:03:23.787Z,14.30
2022-10-30T19:10:11.043Z,13.90
2022-10-30T19:16:59.023Z,13.75
2022-10-30T19:23:44.521Z,16.00
2022-10-30T19:30:29.927Z,12.87
2022-10-30T19:37:17.873Z,12.87
2022-10-30T19:44:03.231Z,13.57
2022-10-30T19:50:49.971Z,13.10
2022-10-30T19:57:37.937Z,12.90
2022-10-30T20:04:23.291Z,12.32
2022-10-30T20:11:09.122Z,13.77
2022-10-30T20:17:58.150Z,11.95
2022-10-30T20:24:43.612Z,12.43
2022-10-30T20:31:29.028Z,14.27
2022-10-30T20:38:21.591Z,13.50
2022-10-30T20:45:08.871Z,13.30
2022-10-30T20:51:54.361Z,11.55
2022-10-30T20:58:42.677Z,11.60
2022-10-30T21:05:43.147Z,10.82
2022-10-30T21:12:29.815Z,10.23
2022-10-30T21:19:18.358Z,9.70
2022-10-30T21:26:04.620Z,9.45
2022-10-30T21:39:37.902Z,9.23
2022-10-30T21:46:24.819Z,9.48
2022-10-30T21:53:10.211Z,10.00
2022-10-30T22:00:01.506Z,9.10
2022-10-30T22:06:52.752Z,9.30
2022-10-30T22:13:39.419Z,9.60
2022-10-30T22:20:28.041Z,9.20
2022-10-30T22:27:13.606Z,9.73
2022-10-30T22:33:59.680Z,9.03
2022-10-30T22:40:47.648Z,8.50
2022-10-30T22:47:33.075Z,9.18
2022-10-30T22:54:18.482Z,9.57
2022-10-30T23:01:16.204Z,8.77
2022-10-30T23:08:01.610Z,9.18
2022-10-30T23:14:46.957Z,8.90
2022-10-30T23:21:35.763Z,9.13
2022-10-30T23:28:21.131Z,9.35
2022-10-30T23:35:06.767Z,9.30
2022-10-30T23:41:54.742Z,9.33
2022-10-30T23:48:40.086Z,10.00
2022-10-30T23:55:25.470Z,9.40
